Time;durP1;ratioP1;P1;durP2;ratioP2;P2;SDS_P1;SDS_P2;PMS_P1;PMS_P2;Temp;Humidity;BMP_temperature;BMP_pressure;BME280_temperature;BME280_humidity;BME280_pressure;Samples;Min_cycle;Max_cycle;Signal;HPM_P1;HPM_P2
2022/02/20 00:00:27;;;;;;;3.53;0.97;;;2.40;87.70;;;;;;2078279;28;20181;-76
2022/02/20 00:01:27;;;;;;;5.13;1.10;;;2.40;87.00;;;;;;2086686;28;20202;-76
2022/02/20 00:02:28;;;;;;;2.77;0.73;;;2.40;87.50;;;;;;2086615;28;20180;-76
2022/02/20 00:03:29;;;;;;;5.20;1.73;;;2.50;87.20;;;;;;2087514;28;20190;-76
2022/02/20 00:04:29;;;;;;;8.23;1.00;;;2.50;86.50;;;;;;2087339;28;20178;-76
2022/02/20 00:05:30;;;;;;;5.30;1.17;;;2.50;86.10;;;;;;2086370;28;20185;-76
2022/02/20 00:06:31;;;;;;;2.40;0.88;;;2.50;86.10;;;;;;2087847;28;20183;-76
2022/02/20 00:07:32;;;;;;;3.00;0.90;;;2.50;86.00;;;;;;2087731;28;20173;-76
2022/02/20 00:08:32;;;;;;;1.20;0.77;;;2.60;86.50;;;;;;2079013;28;20196;-76
2022/02/20 00:09:33;;;;;;;2.90;0.77;;;2.60;86.80;;;;;;2079166;28;20188;-76
2022/02/20 00:10:34;;;;;;;3.87;0.97;;;2.60;87.10;;;;;;2079265;28;20242;-76
2022/02/20 00:11:34;;;;;;;0.80;0.67;;;2.50;87.30;;;;;;2078847;28;20206;-76
2022/02/20 00:12:35;;;;;;;7.20;1.10;;;2.50;88.50;;;;;;2087087;28;20179;-76
2022/02/20 00:13:36;;;;;;;4.73;1.40;;;2.50;90.00;;;;;;2078995;28;20177;-76
2022/02/20 00:14:37;;;;;;;3.33;0.90;;;2.40;90.50;;;;;;2078513;28;20257;-75
2022/02/20 00:15:38;;;;;;;2.17;0.90;;;2.40;90.90;;;;;;2086213;28;20260;-76
2022/02/20 00:16:39;;;;;;;2.23;0.80;;;2.40;92.00;;;;;;2087089;28;20216;-76
2022/02/20 00:17:40;;;;;;;3.00;0.97;;;2.40;92.20;;;;;;2087421;28;20735;-76
2022/02/20 00:18:41;;;;;;;5.97;1.15;;;2.30;93.20;;;;;;2086322;28;20425;-76
2022/02/20 00:19:44;;;;;;;1.40;1.00;;;2.20;94.50;;;;;;2077813;28;20196;-76
2022/02/20 00:20:46;;;;;;;7.55;1.10;;;2.20;94.70;;;;;;2070279;28;20222;-77
2022/02/20 00:21:47;;;;;;;4.85;1.30;;;2.20;95.70;;;;;;2070115;28;20191;-77
2022/02/20 00:22:48;;;;;;;4.30;1.17;;;2.20;95.90;;;;;;2062274;28;20184;-76
2022/02/20 00:23:48;;;;;;;4.33;1.00;;;2.20;96.30;;;;;;2069603;28;20245;-76
2022/02/20 00:24:49;;;;;;;6.70;0.97;;;2.10;97.00;;;;;;2078276;28;20619;-76
2022/02/20 00:25:50;;;;;;;4.63;1.37;;;2.10;97.40;;;;;;2077774;28;20749;-77
2022/02/20 00:26:50;;;;;;;1.40;0.90;;;2.10;97.50;;;;;;2068634;28;20689;-76
2022/02/20 00:27:51;;;;;;;7.37;1.33;;;2.10;98.20;;;;;;2061060;28;20180;-76
2022/02/20 00:28:52;;;;;;;2.23;0.80;;;2.10;98.30;;;;;;2070007;28;20202;-76
2022/02/20 00:29:53;;;;;;;5.77;0.90;;;2.10;99.00;;;;;;2070035;28;20170;-76
2022/02/20 00:30:54;;;;;;;4.13;1.33;;;2.10;99.10;;;;;;2077416;28;20189;-76
2022/02/20 00:31:55;;;;;;;2.57;1.10;;;2.10;98.20;;;;;;2087058;28;20272;-76
2022/02/20 00:32:58;;;;;;;4.07;1.23;;;2.10;98.60;;;;;;2078095;28;20253;-77
2022/02/20 00:33:59;;;;;;;1.98;0.82;;;2.00;98.80;;;;;;2070094;28;20195;-76
2022/02/20 00:34:59;;;;;;;4.93;1.20;;;2.00;99.40;;;;;;2070373;28;20282;-76
2022/02/20 00:36:00;;;;;;;5.67;1.40;;;2.00;99.60;;;;;;2077799;28;20283;-76
2022/02/20 00:37:01;;;;;;;3.00;1.03;;;2.10;99.90;;;;;;2077760;28;20243;-76
2022/02/20 00:38:04;;;;;;;3.57;0.87;;;2.00;99.90;;;;;;2078249;28;20287;-76
2022/02/20 00:39:05;;;;;;;1.50;0.98;;;2.10;99.90;;;;;;2077526;28;20174;-77
2022/02/20 00:40:06;;;;;;;4.33;1.27;;;2.00;99.90;;;;;;2060800;28;20187;-77
2022/02/20 00:41:07;;;;;;;2.55;1.42;;;1.80;99.90;;;;;;2060607;28;20195;-76
2022/02/20 00:42:07;;;;;;;1.87;0.90;;;1.80;99.90;;;;;;2069497;28;20658;-76
2022/02/20 00:43:09;;;;;;;6.27;1.63;;;1.80;99.90;;;;;;2060873;28;20204;-77
2022/02/20 00:44:10;;;;;;;3.45;1.05;;;1.90;99.90;;;;;;2061041;28;20292;-77
2022/02/20 00:45:11;;;;;;;1.53;0.70;;;1.90;99.90;;;;;;2077027;28;20205;-76
2022/02/20 00:46:11;;;;;;;2.87;0.93;;;1.90;99.90;;;;;;2076904;28;20206;-76
2022/02/20 00:47:12;;;;;;;4.20;1.00;;;1.90;99.90;;;;;;2069078;28;20418;-76
2022/02/20 00:48:17;;;;;;;4.83;1.27;;;1.90;99.90;;;;;;2061205;28;20176;-76
2022/02/20 00:49:18;;;;;;;2.97;1.00;;;1.90;99.90;;;;;;2061573;28;20244;-76
2022/02/20 00:50:19;;;;;;;3.40;0.83;;;2.00;99.90;;;;;;2069680;28;20187;-76
2022/02/20 00:51:19;;;;;;;5.90;1.33;;;1.90;99.90;;;;;;2075966;28;20577;-77
2022/02/20 00:52:20;;;;;;;4.67;0.80;;;1.90;99.90;;;;;;2075981;28;20182;-77
2022/02/20 00:53:21;;;;;;;5.40;0.90;;;2.00;99.90;;;;;;2075775;28;20172;-77
2022/02/20 00:54:21;;;;;;;3.63;1.20;;;2.00;99.90;;;;;;2074624;28;20178;-77
2022/02/20 00:55:25;;;;;;;7.67;1.40;;;1.90;99.90;;;;;;2067660;28;20183;-76
2022/02/20 00:56:26;;;;;;;6.28;1.40;;;1.90;99.90;;;;;;2074094;28;20583;-76
2022/02/20 00:57:26;;;;;;;3.58;0.90;;;1.80;99.90;;;;;;2073415;28;20197;-77
2022/02/20 00:58:27;;;;;;;1.57;0.70;;;1.80;99.90;;;;;;2065350;28;20655;-77
2022/02/20 00:59:28;;;;;;;4.37;1.13;;;1.90;99.90;;;;;;2065863;28;20605;-76
2022/02/20 01:00:29;;;;;;;5.03;1.40;;;1.90;99.90;;;;;;2066552;28;20220;-77
2022/02/20 01:01:30;;;;;;;2.90;1.02;;;1.80;99.90;;;;;;2058993;28;20183;-77
2022/02/20 01:02:31;;;;;;;3.13;1.17;;;1.90;99.90;;;;;;2058828;28;20217;-77
2022/02/20 01:03:32;;;;;;;1.97;1.00;;;1.90;99.90;;;;;;2066608;28;20188;-77
2022/02/20 01:04:32;;;;;;;0.98;0.80;;;1.90;99.90;;;;;;2065937;28;20586;-77
2022/02/20 01:05:33;;;;;;;2.57;0.97;;;1.90;99.90;;;;;;2065812;28;20180;-76
2022/02/20 01:06:34;;;;;;;2.90;0.87;;;1.90;99.90;;;;;;2065759;28;20229;-77
2022/02/20 01:07:35;;;;;;;3.60;1.30;;;2.00;99.90;;;;;;2065623;28;20212;-77
2022/02/20 01:08:36;;;;;;;3.23;1.57;;;2.00;99.90;;;;;;2065417;28;20183;-76
2022/02/20 01:09:36;;;;;;;3.47;0.80;;;2.00;99.90;;;;;;2064626;28;20185;-76
2022/02/20 01:10:37;;;;;;;2.63;0.80;;;1.90;99.90;;;;;;2072789;28;20178;-77
2022/02/20 01:11:38;;;;;;;2.87;0.60;;;1.80;99.90;;;;;;2073233;28;20194;-76
2022/02/20 01:12:38;;;;;;;1.10;0.70;;;1.80;99.90;;;;;;2072897;28;20668;-77
2022/02/20 01:13:39;;;;;;;3.23;0.90;;;1.70;99.90;;;;;;2065143;28;20183;-77
2022/02/20 01:14:40;;;;;;;2.03;0.90;;;1.70;99.90;;;;;;2064405;28;20193;-77
2022/02/20 01:15:41;;;;;;;3.10;1.00;;;1.70;99.90;;;;;;2072100;28;20531;-77
2022/02/20 01:16:41;;;;;;;1.80;0.90;;;1.70;99.90;;;;;;2072308;28;20218;-77
2022/02/20 01:17:42;;;;;;;5.37;1.10;;;1.60;99.90;;;;;;2072357;28;20178;-77
2022/02/20 01:18:43;;;;;;;4.40;1.10;;;1.70;99.90;;;;;;2064002;28;20217;-77
2022/02/20 01:19:44;;;;;;;1.53;0.97;;;1.70;99.90;;;;;;2056134;28;20458;-77
2022/02/20 01:20:44;;;;;;;8.70;1.37;;;1.70;99.90;;;;;;2064203;28;20205;-77
2022/02/20 01:21:45;;;;;;;2.47;0.80;;;1.80;99.90;;;;;;2056134;28;20227;-77
2022/02/20 01:22:46;;;;;;;9.33;1.13;;;1.70;99.90;;;;;;2056109;28;20190;-77
2022/02/20 01:23:46;;;;;;;5.17;1.10;;;1.70;99.90;;;;;;2056113;28;20283;-77
2022/02/20 01:24:47;;;;;;;4.63;2.33;;;1.70;99.90;;;;;;2063989;28;20174;-77
2022/02/20 01:25:48;;;;;;;2.78;1.02;;;1.70;99.90;;;;;;2063674;28;20187;-76
2022/02/20 01:26:49;;;;;;;2.30;0.77;;;1.70;99.90;;;;;;2063955;28;20217;-77
2022/02/20 01:27:50;;;;;;;3.73;1.90;;;1.80;99.90;;;;;;2055973;28;20302;-77
2022/02/20 01:28:50;;;;;;;2.70;0.80;;;1.80;99.90;;;;;;2055878;28;20688;-77
2022/02/20 01:29:51;;;;;;;1.67;0.70;;;1.90;99.90;;;;;;2055742;28;20275;-77
2022/02/20 01:30:52;;;;;;;3.17;1.20;;;1.90;99.90;;;;;;2047850;28;20656;-76
2022/02/20 01:31:53;;;;;;;1.90;0.70;;;2.00;99.90;;;;;;2055826;28;20194;-76
2022/02/20 01:32:54;;;;;;;2.83;0.80;;;2.00;99.90;;;;;;2063873;28;20268;-76
2022/02/20 01:33:54;;;;;;;1.50;0.80;;;2.10;99.90;;;;;;2063825;28;20716;-76
2022/02/20 01:34:55;;;;;;;2.57;1.23;;;2.10;99.90;;;;;;2063834;28;20643;-77
2022/02/20 01:35:57;;;;;;;1.97;0.83;;;2.10;99.90;;;;;;2055543;28;20201;-77
2022/02/20 01:36:57;;;;;;;1.45;0.70;;;2.20;99.90;;;;;;2055966;28;20227;-77
2022/02/20 01:37:58;;;;;;;2.30;0.90;;;2.20;99.90;;;;;;2063937;28;20183;-76
2022/02/20 01:38:59;;;;;;;2.67;1.10;;;2.20;99.80;;;;;;2070964;28;20174;-76
2022/02/20 01:39:59;;;;;;;1.53;0.90;;;2.20;99.00;;;;;;2080474;28;20186;-76
2022/02/20 01:41:00;;;;;;;2.07;1.17;;;2.20;99.90;;;;;;2071804;28;20290;-76
2022/02/20 01:42:01;;;;;;;2.50;1.13;;;2.20;99.90;;;;;;2063554;28;20192;-77
2022/02/20 01:43:02;;;;;;;1.37;0.87;;;2.30;99.60;;;;;;2072024;28;20187;-77
2022/02/20 01:44:05;;;;;;;0.88;0.70;;;2.30;99.50;;;;;;2071862;28;20181;-76
2022/02/20 01:45:14;;;;;;;1.98;0.60;;;2.30;99.50;;;;;;2071870;28;20278;-76
2022/02/20 01:46:14;;;;;;;1.48;0.70;;;2.30;99.20;;;;;;2063748;28;20287;-76
2022/02/20 01:47:15;;;;;;;4.90;1.27;;;2.30;99.00;;;;;;2064330;28;20178;-77
2022/02/20 01:48:18;;;;;;;1.05;0.80;;;2.30;98.50;;;;;;2071955;28;20854;-76
2022/02/20 01:49:20;;;;;;;5.88;1.08;;;2.30;98.70;;;;;;2063724;28;20186;-76
2022/02/20 01:50:21;;;;;;;4.28;0.75;;;2.30;99.00;;;;;;2055852;28;20586;-76
2022/02/20 01:51:21;;;;;;;0.87;0.77;;;2.40;98.90;;;;;;2055733;28;20189;-76
2022/02/20 01:52:22;;;;;;;4.57;1.07;;;2.30;99.40;;;;;;2063782;28;20199;-76
2022/02/20 01:53:23;;;;;;;6.80;0.90;;;2.30;98.60;;;;;;2063926;28;20178;-76
2022/02/20 01:54:23;;;;;;;3.30;0.90;;;2.30;98.80;;;;;;2071890;28;20562;-76
2022/02/20 01:55:25;;;;;;;2.33;0.90;;;2.30;99.50;;;;;;2071731;28;20239;-75
2022/02/20 01:56:26;;;;;;;3.00;1.02;;;2.40;99.10;;;;;;2063629;28;20176;-76
2022/02/20 01:57:26;;;;;;;2.80;0.80;;;2.40;99.20;;;;;;2063890;28;20184;-76
2022/02/20 01:58:27;;;;;;;1.50;0.83;;;2.40;99.00;;;;;;2071766;28;20640;-76
2022/02/20 01:59:28;;;;;;;1.77;0.83;;;2.40;98.60;;;;;;2072145;28;20179;-77
2022/02/20 02:00:29;;;;;;;3.67;1.07;;;2.40;98.40;;;;;;2071704;28;20234;-76
2022/02/20 02:01:30;;;;;;;3.43;0.63;;;2.40;98.10;;;;;;2071865;28;20222;-76
2022/02/20 02:02:31;;;;;;;2.03;0.90;;;2.50;98.40;;;;;;2064232;28;20168;-76
2022/02/20 02:03:35;;;;;;;1.58;0.60;;;2.50;98.30;;;;;;2064130;28;20256;-76
2022/02/20 02:04:35;;;;;;;1.75;0.80;;;2.50;97.80;;;;;;2072547;28;20747;-76
2022/02/20 02:05:36;;;;;;;3.73;0.70;;;2.50;97.60;;;;;;2071684;28;20186;-76
2022/02/20 02:06:37;;;;;;;2.67;0.60;;;2.50;97.60;;;;;;2063884;28;20212;-77
2022/02/20 02:07:38;;;;;;;3.13;0.70;;;2.60;97.90;;;;;;2072171;28;20187;-76
2022/02/20 02:08:40;;;;;;;1.20;0.70;;;2.50;97.50;;;;;;2064185;28;20646;-76
2022/02/20 02:09:41;;;;;;;1.33;0.90;;;2.60;97.10;;;;;;2056488;28;20241;-77
2022/02/20 02:10:42;;;;;;;1.67;0.93;;;2.60;97.30;;;;;;2064620;28;20239;-76
2022/02/20 02:11:45;;;;;;;1.10;0.65;;;2.60;97.60;;;;;;2081415;28;20177;-76
2022/02/20 02:12:45;;;;;;;2.10;0.80;;;2.60;97.90;;;;;;2073869;28;20179;-75
2022/02/20 02:13:46;;;;;;;1.17;0.70;;;2.60;97.50;;;;;;2066172;28;20242;-76
2022/02/20 02:15:02;;;;;;;1.10;0.60;;;2.70;97.40;;;;;;2067386;28;20184;-75
2022/02/20 02:16:03;;;;;;;3.40;0.90;;;2.70;97.10;;;;;;2070170;28;20294;-75
2022/02/20 02:17:04;;;;;;;0.95;0.68;;;2.70;96.30;;;;;;2068805;28;20213;-76
2022/02/20 02:18:05;;;;;;;2.13;0.90;;;2.70;96.50;;;;;;2077138;28;20172;-76
2022/02/20 02:19:05;;;;;;;3.20;0.87;;;2.70;96.70;;;;;;2085951;28;20161;-76
2022/02/20 02:20:09;;;;;;;0.50;0.50;;;2.60;96.90;;;;;;2076996;28;20181;-76
2022/02/20 02:21:09;;;;;;;1.30;0.68;;;2.60;96.90;;;;;;2076791;28;20207;-76
2022/02/20 02:22:10;;;;;;;4.83;1.10;;;2.60;97.10;;;;;;2085890;28;20185;-76
2022/02/20 02:23:21;;;;;;;1.23;0.70;;;2.60;97.20;;;;;;2086560;28;20795;-76
2022/02/20 02:24:22;;;;;;;1.13;0.80;;;2.70;97.60;;;;;;2078118;28;20175;-76
2022/02/20 02:25:24;;;;;;;2.00;0.70;;;2.70;97.50;;;;;;2079857;28;20187;-76
2022/02/20 02:26:26;;;;;;;1.10;0.70;;;2.70;97.30;;;;;;2079168;28;20182;-76
2022/02/20 02:27:27;;;;;;;2.72;0.60;;;2.70;97.50;;;;;;2080122;28;20206;-75
2022/02/20 02:28:28;;;;;;;3.58;0.90;;;2.70;97.60;;;;;;2087855;28;20193;-76
2022/02/20 02:29:29;;;;;;;5.03;0.90;;;2.60;97.40;;;;;;2088456;28;20186;-76
2022/02/20 02:30:29;;;;;;;3.67;0.80;;;2.60;98.00;;;;;;2088483;28;20191;-76
2022/02/20 02:31:30;;;;;;;1.87;1.13;;;2.70;97.80;;;;;;2088207;28;20414;-75
2022/02/20 02:32:31;;;;;;;0.80;0.43;;;2.80;97.80;;;;;;2088275;28;20471;-76
2022/02/20 02:33:34;;;;;;;2.23;0.93;;;2.70;97.80;;;;;;2087566;28;20750;-76
2022/02/20 02:34:35;;;;;;;2.97;0.75;;;2.70;97.80;;;;;;2079137;28;20177;-75
2022/02/20 02:35:36;;;;;;;2.92;0.80;;;2.70;97.80;;;;;;2080463;28;20203;-75
2022/02/20 02:36:36;;;;;;;2.10;1.10;;;2.60;98.70;;;;;;2080109;28;20248;-75
2022/02/20 02:37:37;;;;;;;1.70;0.70;;;2.60;98.70;;;;;;2080963;28;20183;-75
2022/02/20 02:38:38;;;;;;;1.60;0.60;;;2.60;98.40;;;;;;2089573;28;20172;-76
2022/02/20 02:39:40;;;;;;;0.57;0.50;;;2.70;98.30;;;;;;2079150;28;20196;-75
2022/02/20 02:40:40;;;;;;;2.28;0.90;;;2.60;98.30;;;;;;2079769;28;20175;-76
2022/02/20 02:41:41;;;;;;;3.03;0.73;;;2.60;98.30;;;;;;2088978;28;20209;-76
2022/02/20 02:42:42;;;;;;;0.60;0.60;;;2.60;98.70;;;;;;2088985;28;20167;-75
2022/02/20 02:43:43;;;;;;;1.73;0.70;;;2.60;98.20;;;;;;2088329;28;20184;-75
2022/02/20 02:44:44;;;;;;;0.63;0.50;;;2.70;98.10;;;;;;2088519;28;20194;-75
2022/02/20 02:45:45;;;;;;;2.45;0.70;;;2.70;98.10;;;;;;2088992;28;20202;-75
2022/02/20 02:46:46;;;;;;;0.83;0.50;;;2.60;98.20;;;;;;2088018;28;20196;-75
2022/02/20 02:47:47;;;;;;;2.07;0.60;;;2.60;98.40;;;;;;2088015;28;20199;-76
2022/02/20 02:48:48;;;;;;;2.92;0.80;;;2.60;98.50;;;;;;2088535;28;20194;-75
2022/02/20 02:49:49;;;;;;;1.30;0.55;;;2.70;98.20;;;;;;2088929;28;20173;-75
2022/02/20 02:50:50;;;;;;;2.00;0.50;;;2.70;98.10;;;;;;2090645;28;20251;-75
2022/02/20 02:51:51;;;;;;;1.13;0.68;;;2.70;97.70;;;;;;2089969;28;20183;-75
2022/02/20 02:52:52;;;;;;;1.25;0.73;;;2.80;97.90;;;;;;2090395;28;20511;-75
2022/02/20 02:53:57;;;;;;;2.17;0.77;;;2.80;97.80;;;;;;2090778;28;20174;-75
2022/02/20 02:54:59;;;;;;;2.85;0.93;;;2.80;97.80;;;;;;2091106;28;20170;-75
2022/02/20 02:56:00;;;;;;;2.35;0.60;;;2.80;98.20;;;;;;2090730;28;20186;-75
2022/02/20 02:57:02;;;;;;;1.10;0.60;;;2.70;98.30;;;;;;2090517;28;20204;-75
2022/02/20 02:58:05;;;;;;;0.93;0.88;;;2.70;98.70;;;;;;2091152;28;20281;-75
2022/02/20 02:59:06;;;;;;;1.33;0.60;;;2.70;98.70;;;;;;2090411;28;20319;-75
2022/02/20 03:00:07;;;;;;;2.13;0.95;;;2.80;98.50;;;;;;2082068;28;20162;-75
2022/02/20 03:01:08;;;;;;;1.08;0.63;;;2.80;98.40;;;;;;2080697;28;20178;-76
2022/02/20 03:02:09;;;;;;;1.27;0.70;;;2.70;98.40;;;;;;2090286;28;20231;-75
2022/02/20 03:03:10;;;;;;;2.17;0.60;;;2.70;98.60;;;;;;2079306;28;20438;-75
2022/02/20 03:04:11;;;;;;;1.23;0.63;;;2.70;99.20;;;;;;2072699;28;20278;-75
2022/02/20 03:05:12;;;;;;;4.03;0.80;;;2.60;99.50;;;;;;2064582;28;20179;-75
2022/02/20 03:06:15;;;;;;;0.77;0.60;;;2.60;99.50;;;;;;2065104;28;20195;-76
2022/02/20 03:07:16;;;;;;;0.60;0.60;;;2.60;99.70;;;;;;2065762;28;20201;-76
2022/02/20 03:08:17;;;;;;;0.63;0.60;;;2.70;99.20;;;;;;2057500;28;20185;-75
2022/02/20 03:09:17;;;;;;;1.87;0.50;;;2.70;99.90;;;;;;2065365;28;20165;-75
2022/02/20 03:10:18;;;;;;;1.73;1.00;;;2.80;99.10;;;;;;2073112;28;20259;-75
2022/02/20 03:11:19;;;;;;;2.37;0.77;;;2.70;99.10;;;;;;2073653;28;20247;-75
2022/02/20 03:12:20;;;;;;;2.10;0.50;;;2.80;99.30;;;;;;2064628;28;20181;-75
2022/02/20 03:13:21;;;;;;;1.80;0.60;;;2.80;99.00;;;;;;2072468;28;20179;-76
2022/02/20 03:14:22;;;;;;;2.53;0.83;;;2.70;98.80;;;;;;2080390;28;20177;-75
2022/02/20 03:15:22;;;;;;;1.67;0.52;;;2.70;99.40;;;;;;2078659;28;20184;-75
2022/02/20 03:16:23;;;;;;;1.63;0.70;;;2.70;99.50;;;;;;2089276;28;20191;-75
2022/02/20 03:17:24;;;;;;;1.97;0.80;;;2.70;99.50;;;;;;2079292;28;20172;-75
2022/02/20 03:18:26;;;;;;;1.50;0.60;;;2.80;99.40;;;;;;2072340;28;20544;-75
2022/02/20 03:19:27;;;;;;;2.78;0.77;;;2.70;99.80;;;;;;2079394;28;20175;-75
2022/02/20 03:20:28;;;;;;;2.53;1.43;;;2.70;99.80;;;;;;2080518;28;20243;-75
2022/02/20 03:21:28;;;;;;;0.87;0.60;;;2.70;99.90;;;;;;2071624;28;20239;-75
2022/02/20 03:22:29;;;;;;;2.50;0.80;;;2.70;99.90;;;;;;2063804;28;20209;-75
2022/02/20 03:23:30;;;;;;;3.03;1.00;;;2.70;99.90;;;;;;2079918;28;20205;-75
2022/02/20 03:24:31;;;;;;;1.95;0.73;;;2.70;99.90;;;;;;2079580;28;20185;-75
2022/02/20 03:25:32;;;;;;;3.73;0.60;;;2.70;99.90;;;;;;2079118;28;20269;-76
2022/02/20 03:26:32;;;;;;;3.33;0.97;;;2.60;99.90;;;;;;2071782;28;20244;-76
2022/02/20 03:27:34;;;;;;;0.97;0.60;;;2.70;99.90;;;;;;2071543;28;20192;-76
2022/02/20 03:28:34;;;;;;;1.40;0.70;;;2.60;99.90;;;;;;2079879;28;20665;-76
2022/02/20 03:29:35;;;;;;;1.40;1.00;;;2.60;99.90;;;;;;2088057;28;20183;-75
2022/02/20 03:30:36;;;;;;;0.60;0.50;;;2.60;99.90;;;;;;2088394;28;20189;-76
2022/02/20 03:31:37;;;;;;;0.73;0.57;;;2.60;99.90;;;;;;2088576;28;20239;-76
2022/02/20 03:32:37;;;;;;;2.47;0.93;;;2.50;99.90;;;;;;2089616;28;20174;-75
2022/02/20 03:33:38;;;;;;;6.63;1.33;;;2.50;99.90;;;;;;2088753;28;20182;-76
2022/02/20 03:34:39;;;;;;;0.70;0.60;;;2.60;99.90;;;;;;2089176;28;20174;-76
2022/02/20 03:35:39;;;;;;;3.03;0.70;;;2.60;99.90;;;;;;2088005;28;20205;-75
2022/02/20 03:36:40;;;;;;;1.60;0.67;;;2.60;99.90;;;;;;2088188;28;20231;-75
2022/02/20 03:37:41;;;;;;;1.43;0.60;;;2.60;99.90;;;;;;2089147;28;20246;-75
2022/02/20 03:38:42;;;;;;;1.23;0.83;;;2.60;99.90;;;;;;2089288;28;20204;-76
2022/02/20 03:39:42;;;;;;;1.42;0.80;;;2.60;99.90;;;;;;2089503;28;20214;-76
2022/02/20 03:40:43;;;;;;;1.33;0.53;;;2.70;99.90;;;;;;2088601;28;20234;-76
2022/02/20 03:41:44;;;;;;;2.20;0.70;;;2.70;99.90;;;;;;2087920;28;20186;-76
2022/02/20 03:42:45;;;;;;;1.48;0.93;;;2.70;99.90;;;;;;2080000;28;20186;-76
2022/02/20 03:43:46;;;;;;;4.17;1.03;;;2.70;99.90;;;;;;2080393;28;20287;-76
2022/02/20 03:44:46;;;;;;;0.90;0.70;;;2.60;99.90;;;;;;2088637;28;20177;-76
2022/02/20 03:45:47;;;;;;;0.70;0.60;;;2.60;99.90;;;;;;2088667;28;20299;-76
2022/02/20 03:46:48;;;;;;;0.77;0.50;;;2.60;99.90;;;;;;2079137;28;20188;-76
2022/02/20 03:47:51;;;;;;;2.87;0.60;;;2.60;99.90;;;;;;2080051;28;20183;-76
2022/02/20 03:48:51;;;;;;;2.08;1.30;;;2.60;99.90;;;;;;2079912;28;20217;-76
2022/02/20 03:49:52;;;;;;;2.00;0.90;;;2.70;99.90;;;;;;2080489;28;20175;-76
2022/02/20 03:50:53;;;;;;;6.13;0.93;;;2.60;99.90;;;;;;2089041;28;20188;-75
2022/02/20 03:51:54;;;;;;;3.47;1.10;;;2.60;99.90;;;;;;2089124;28;20208;-75
2022/02/20 03:52:55;;;;;;;2.63;0.80;;;2.60;99.90;;;;;;2089340;28;20207;-76
2022/02/20 03:53:55;;;;;;;1.03;0.70;;;2.50;99.90;;;;;;2089278;28;20325;-76
2022/02/20 03:54:56;;;;;;;0.57;0.50;;;2.50;99.90;;;;;;2089707;28;20235;-75
2022/02/20 03:55:57;;;;;;;0.80;0.60;;;2.50;99.90;;;;;;2087487;28;20783;-76
2022/02/20 03:56:57;;;;;;;1.40;0.77;;;2.50;99.90;;;;;;2088524;28;20213;-76
2022/02/20 03:57:58;;;;;;;3.00;0.70;;;2.50;99.90;;;;;;2088972;28;20158;-76
2022/02/20 03:58:59;;;;;;;2.07;0.80;;;2.50;99.90;;;;;;2089327;28;20235;-76
2022/02/20 04:00:02;;;;;;;2.37;0.60;;;2.60;99.90;;;;;;2072022;28;20240;-75
2022/02/20 04:01:03;;;;;;;1.08;0.55;;;2.50;99.90;;;;;;2072456;28;20176;-76
2022/02/20 04:02:04;;;;;;;10.83;0.73;;;2.50;99.90;;;;;;2088314;28;20265;-75
2022/02/20 04:03:04;;;;;;;0.50;0.50;;;2.50;99.90;;;;;;2089366;28;20188;-76
2022/02/20 04:04:05;;;;;;;2.50;0.93;;;2.50;99.90;;;;;;2089608;28;20179;-76
2022/02/20 04:05:12;;;;;;;0.67;0.50;;;2.60;99.90;;;;;;2089192;28;20168;-76
2022/02/20 04:06:13;;;;;;;2.72;0.70;;;2.60;99.90;;;;;;2089833;28;20191;-76
2022/02/20 04:07:14;;;;;;;1.35;0.93;;;2.60;99.90;;;;;;2089987;28;20189;-76
2022/02/20 04:08:15;;;;;;;1.00;0.67;;;2.60;99.90;;;;;;2089503;28;20177;-76
2022/02/20 04:09:15;;;;;;;1.60;0.60;;;2.70;99.90;;;;;;2088621;28;20188;-76
2022/02/20 04:10:16;;;;;;;0.97;0.67;;;2.70;99.90;;;;;;2088459;28;20181;-76
2022/02/20 04:11:17;;;;;;;3.80;0.67;;;2.70;99.90;;;;;;2087618;28;20182;-76
2022/02/20 04:12:18;;;;;;;1.50;0.60;;;2.70;99.90;;;;;;2089013;28;20187;-76
2022/02/20 04:13:18;;;;;;;0.70;0.70;;;2.60;99.90;;;;;;2081245;28;20183;-76
2022/02/20 04:14:19;;;;;;;0.60;0.37;;;2.70;99.90;;;;;;2078889;28;20269;-76
2022/02/20 04:15:20;;;;;;;1.23;0.50;;;2.70;99.90;;;;;;2087937;28;20174;-76
2022/02/20 04:16:20;;;;;;;0.50;0.47;;;2.70;99.90;;;;;;2088028;28;20197;-76
2022/02/20 04:17:21;;;;;;;4.87;0.80;;;2.70;99.90;;;;;;2088324;28;20238;-76
2022/02/20 04:18:22;;;;;;;0.63;0.50;;;2.70;99.90;;;;;;2088524;28;20181;-76
2022/02/20 04:19:23;;;;;;;0.53;0.40;;;2.80;99.90;;;;;;2087984;28;20952;-76
2022/02/20 04:20:23;;;;;;;0.93;0.40;;;2.80;99.90;;;;;;2088460;28;20171;-76
2022/02/20 04:21:24;;;;;;;0.87;0.60;;;2.80;99.90;;;;;;2086576;28;20175;-76
2022/02/20 04:22:25;;;;;;;1.87;0.40;;;2.80;99.90;;;;;;2087120;28;20190;-76
2022/02/20 04:23:30;;;;;;;0.70;0.60;;;2.80;99.90;;;;;;2086608;28;20209;-76
2022/02/20 04:24:31;;;;;;;1.42;0.60;;;2.80;99.90;;;;;;2079049;28;20190;-75
2022/02/20 04:25:31;;;;;;;0.80;0.70;;;2.80;99.90;;;;;;2078227;28;20179;-76
2022/02/20 04:26:32;;;;;;;1.53;0.50;;;2.70;99.90;;;;;;2076583;28;20180;-76
2022/02/20 04:27:33;;;;;;;3.43;0.87;;;2.80;99.90;;;;;;2069020;28;20251;-76
2022/02/20 04:28:34;;;;;;;1.67;0.90;;;2.80;99.90;;;;;;2075431;28;20176;-76
2022/02/20 04:29:35;;;;;;;3.07;0.80;;;2.80;99.90;;;;;;2074794;28;20167;-76
2022/02/20 04:30:36;;;;;;;0.95;0.70;;;2.80;99.90;;;;;;2074673;28;20900;-77
2022/02/20 04:31:36;;;;;;;2.40;0.60;;;2.80;99.90;;;;;;2066597;28;20189;-76
2022/02/20 04:32:37;;;;;;;1.93;0.60;;;2.80;99.90;;;;;;2066241;28;20177;-76
2022/02/20 04:33:38;;;;;;;1.63;0.60;;;2.80;99.90;;;;;;2066402;28;20167;-76
2022/02/20 04:34:39;;;;;;;0.97;0.53;;;2.80;99.90;;;;;;2058273;28;20207;-76
2022/02/20 04:35:39;;;;;;;2.63;0.50;;;2.90;99.90;;;;;;2058867;28;20737;-76
2022/02/20 04:36:40;;;;;;;0.73;0.57;;;2.90;99.90;;;;;;2066627;28;20191;-76
2022/02/20 04:37:41;;;;;;;3.40;1.07;;;2.90;99.90;;;;;;2074994;28;20490;-76
2022/02/20 04:38:41;;;;;;;1.50;0.50;;;2.90;99.90;;;;;;2075821;28;20186;-76
2022/02/20 04:39:42;;;;;;;0.93;0.60;;;2.90;99.90;;;;;;2076759;28;20192;-76
2022/02/20 04:40:43;;;;;;;0.60;0.60;;;2.90;99.90;;;;;;2076604;28;20186;-76
2022/02/20 04:41:44;;;;;;;1.03;0.70;;;2.80;99.90;;;;;;2074480;28;20699;-76
2022/02/20 04:42:47;;;;;;;0.73;0.40;;;2.90;99.90;;;;;;2074972;28;20194;-76
2022/02/20 04:43:48;;;;;;;0.73;0.60;;;2.80;99.90;;;;;;2066927;28;20187;-76
2022/02/20 04:44:49;;;;;;;1.02;0.52;;;2.80;99.90;;;;;;2068439;28;20196;-76
2022/02/20 04:45:49;;;;;;;1.07;0.60;;;2.70;99.90;;;;;;2067583;28;20261;-76
2022/02/20 04:46:50;;;;;;;5.73;0.70;;;2.80;99.90;;;;;;2075565;28;20210;-76
2022/02/20 04:47:51;;;;;;;1.60;0.50;;;2.80;99.90;;;;;;2076117;28;20183;-76
2022/02/20 04:48:52;;;;;;;1.47;0.50;;;2.90;99.90;;;;;;2066899;28;20187;-76
2022/02/20 04:49:53;;;;;;;0.80;0.60;;;2.90;99.90;;;;;;2076218;28;20187;-76
2022/02/20 04:50:53;;;;;;;1.07;0.70;;;2.80;99.90;;;;;;2068067;28;20168;-76
2022/02/20 04:51:54;;;;;;;2.57;0.60;;;2.70;99.90;;;;;;2068344;28;20207;-76
2022/02/20 04:52:54;;;;;;;0.93;0.60;;;2.80;99.90;;;;;;2068465;28;20209;-76
2022/02/20 04:53:55;;;;;;;2.00;0.60;;;2.80;99.90;;;;;;2068070;28;20192;-76
2022/02/20 04:54:56;;;;;;;0.70;0.70;;;2.80;99.90;;;;;;2067054;28;20645;-76
2022/02/20 04:55:56;;;;;;;1.53;0.40;;;2.80;99.90;;;;;;2066213;28;20188;-76
2022/02/20 04:56:57;;;;;;;1.10;0.67;;;2.80;99.90;;;;;;2066765;28;20457;-76
2022/02/20 04:57:58;;;;;;;0.80;0.50;;;2.90;99.90;;;;;;2074789;28;20702;-76
2022/02/20 04:58:59;;;;;;;0.80;0.53;;;3.00;99.90;;;;;;2074614;28;20184;-76
2022/02/20 05:00:00;;;;;;;2.03;0.63;;;3.00;99.90;;;;;;2066629;28;20198;-76
2022/02/20 05:01:01;;;;;;;1.80;0.60;;;2.90;99.90;;;;;;2075165;28;20237;-76
2022/02/20 05:02:02;;;;;;;0.60;0.50;;;2.90;99.90;;;;;;2083472;28;20167;-76
2022/02/20 05:03:02;;;;;;;0.87;0.50;;;2.90;99.90;;;;;;2066319;28;20210;-76
2022/02/20 05:04:03;;;;;;;4.30;0.77;;;2.90;99.90;;;;;;2058663;28;20279;-76
2022/02/20 05:05:05;;;;;;;1.30;0.60;;;2.80;99.90;;;;;;2065884;28;20248;-76
2022/02/20 05:06:06;;;;;;;0.55;0.55;;;2.80;99.90;;;;;;2066751;28;20184;-75
2022/02/20 05:07:08;;;;;;;1.30;0.60;;;2.80;99.90;;;;;;2057355;28;20196;-76
2022/02/20 05:08:09;;;;;;;0.77;0.30;;;2.90;99.90;;;;;;2067281;28;20173;-76
2022/02/20 05:09:09;;;;;;;0.40;0.40;;;2.90;99.90;;;;;;2074176;28;20197;-76
2022/02/20 05:10:10;;;;;;;1.57;0.50;;;2.90;99.90;;;;;;2074406;28;20180;-76
2022/02/20 05:11:11;;;;;;;1.37;0.60;;;2.90;99.90;;;;;;2066200;28;20180;-76
2022/02/20 05:12:12;;;;;;;0.90;0.50;;;3.00;99.90;;;;;;2066199;28;20275;-76
2022/02/20 05:13:12;;;;;;;1.03;0.60;;;3.00;99.90;;;;;;2067205;28;20184;-76
2022/02/20 05:14:13;;;;;;;0.40;0.40;;;2.90;99.90;;;;;;2067170;28;20188;-76
2022/02/20 05:15:14;;;;;;;1.67;0.50;;;2.90;99.90;;;;;;2059731;28;20741;-75
2022/02/20 05:16:14;;;;;;;1.20;0.50;;;2.90;99.90;;;;;;2060414;28;20192;-76
2022/02/20 05:17:17;;;;;;;0.70;0.50;;;2.90;99.90;;;;;;2067308;28;20281;-76
2022/02/20 05:18:18;;;;;;;1.38;0.60;;;2.90;99.90;;;;;;2076248;28;20235;-76
2022/02/20 05:19:18;;;;;;;1.43;0.40;;;2.90;99.90;;;;;;2068311;28;20589;-76
2022/02/20 05:20:19;;;;;;;0.50;0.40;;;2.90;99.90;;;;;;2067248;28;20574;-75
2022/02/20 05:21:20;;;;;;;1.40;0.50;;;2.90;99.90;;;;;;2067933;28;20172;-76
2022/02/20 05:22:21;;;;;;;1.83;0.40;;;2.80;99.90;;;;;;2067377;28;20187;-76